Westville Lake, Ohio
Current Conditions -  °F | °C
As of 2:51 PM on Sunday 25 Jan 2015 (Local Time) from KCAK Reporting Station
Light Snow Light Snow  
Wind Chill: -6°   Ceiling: 1000
Heat Index: -1°   Visibility: 1.5mi
Dew Point: -4°   Wind: 10mph
Humidity: 82%   Direction: 70°ENE
Pressure: 29.78"   Gusts: NA
Location:  40.915°N, 80.9865°W
Report Text: KCAK 251951Z 07009KT 1 1/2SM R23/5000VP6000FT -SN BR OVC010 M01/M04 A2978 RMK AO2 SLP095 VIS 1V2 P0000 T10111039
Loading
Personal Weather Stations






























Interactive Weather Map New forecast layout! Learn more

10-Day Weather Forecast

Advertisements
Track Severe Weather on mobile